Time;durP1;ratioP1;P1;durP2;ratioP2;P2;SDS_P1;SDS_P2;PMS_P1;PMS_P2;Temp;Humidity;BMP_temperature;BMP_pressure;BME280_temperature;BME280_humidity;BME280_pressure;Samples;Min_cycle;Max_cycle;Signal;HPM_P1;HPM_P2
2024/01/31 00:00:12;;;;;;;3.07;0.97;;;9.20;94.20;;;10.79;64.00;102977.84;3082116;46;20471;-76
2024/01/31 00:02:40;;;;;;;1.57;0.77;;;9.20;94.10;;;10.72;63.93;102976.63;3082009;46;20438;-76
2024/01/31 00:05:08;;;;;;;1.67;0.80;;;9.10;94.00;;;10.68;63.78;102977.84;3081795;46;20476;-76
2024/01/31 00:07:37;;;;;;;4.60;0.80;;;9.10;94.00;;;10.66;64.18;102977.13;3082031;46;20585;-76
2024/01/31 00:10:06;;;;;;;2.37;1.27;;;9.10;94.00;;;10.65;63.93;102978.06;3082442;46;20438;-76
2024/01/31 00:12:34;;;;;;;3.57;1.23;;;9.00;94.00;;;10.63;63.80;102977.34;3082260;46;20427;-76
2024/01/31 00:15:03;;;;;;;3.23;0.63;;;9.00;94.00;;;10.61;64.02;102979.28;3082141;46;20457;-76
2024/01/31 00:17:31;;;;;;;2.23;0.80;;;9.00;94.00;;;10.61;63.87;102984.53;3081596;46;20467;-76
2024/01/31 00:20:00;;;;;;;2.50;0.90;;;9.00;94.00;;;10.59;63.77;102994.38;3082066;46;20456;-76
2024/01/31 00:22:28;;;;;;;1.10;0.67;;;8.90;93.90;;;10.54;63.66;102985.97;3081237;46;21088;-76
2024/01/31 00:24:57;;;;;;;3.20;0.87;;;8.90;93.80;;;10.51;63.63;102990.63;3082078;46;21076;-76
2024/01/31 00:27:25;;;;;;;1.73;0.87;;;8.90;93.70;;;10.49;63.45;103001.28;3081531;46;20447;-76
2024/01/31 00:29:54;;;;;;;1.53;0.60;;;8.80;93.60;;;10.50;63.66;102999.50;3081075;46;20448;-76
2024/01/31 00:32:22;;;;;;;0.93;0.70;;;8.80;93.60;;;10.49;63.25;102997.81;3081750;46;20451;-76
2024/01/31 00:34:50;;;;;;;5.50;1.00;;;8.80;93.70;;;10.49;63.60;103006.56;3081804;46;20432;-76
2024/01/31 00:37:19;;;;;;;4.73;1.07;;;8.80;93.70;;;10.50;63.38;103008.25;3081509;46;20451;-76
2024/01/31 00:39:47;;;;;;;2.23;0.90;;;8.80;93.80;;;10.53;63.50;103007.19;3081555;46;21004;-76
2024/01/31 00:42:16;;;;;;;2.87;0.67;;;8.80;93.80;;;10.52;63.37;103014.22;3081740;46;21004;-75
2024/01/31 00:44:44;;;;;;;2.73;1.13;;;8.80;93.90;;;10.51;63.35;103015.16;3081101;46;21040;-76
2024/01/31 00:47:13;;;;;;;3.63;0.80;;;8.80;93.90;;;10.49;63.41;103021.50;3081376;46;20440;-76
2024/01/31 00:49:42;;;;;;;1.73;0.87;;;8.80;94.00;;;10.45;63.50;103025.34;3081585;46;20582;-76
2024/01/31 00:52:10;;;;;;;1.30;0.67;;;8.80;94.00;;;10.44;63.83;103024.50;3081477;46;20516;-76
2024/01/31 00:54:39;;;;;;;2.60;1.20;;;8.70;94.30;;;10.41;63.63;103024.72;3081582;46;20902;-76
2024/01/31 00:57:07;;;;;;;1.00;0.83;;;8.70;94.00;;;10.38;63.90;103035.50;3081216;46;20427;-76
2024/01/31 00:59:35;;;;;;;1.13;0.80;;;8.70;94.10;;;10.33;63.71;103037.66;3081513;46;20428;-76
2024/01/31 01:02:04;;;;;;;3.23;1.07;;;8.70;94.10;;;10.29;63.96;103038.84;3081448;46;20431;-77
2024/01/31 01:04:34;;;;;;;2.50;0.90;;;8.70;94.10;;;10.26;63.96;103044.31;3081498;46;20457;-76
2024/01/31 01:07:03;;;;;;;4.83;0.97;;;8.70;94.20;;;10.23;63.97;103041.91;3080359;46;20432;-76
2024/01/31 01:09:34;;;;;;;1.30;0.70;;;8.60;94.10;;;10.24;64.27;103053.28;3081405;46;20428;-76
2024/01/31 01:12:03;;;;;;;2.60;1.07;;;8.60;94.20;;;10.24;64.30;103048.88;3080436;46;20440;-76
2024/01/31 01:14:31;;;;;;;1.50;0.70;;;8.60;94.20;;;10.25;64.12;103050.53;3080973;46;20423;-76
2024/01/31 01:17:00;;;;;;;2.00;0.90;;;8.60;94.20;;;10.24;63.87;103059.41;3081044;46;20427;-76
2024/01/31 01:19:28;;;;;;;4.33;0.97;;;8.60;94.20;;;10.24;64.06;103064.66;3081324;46;20979;-76
2024/01/31 01:21:57;;;;;;;3.33;1.00;;;8.50;94.20;;;10.24;64.05;103069.06;3081474;46;21076;-76
2024/01/31 01:24:25;;;;;;;3.47;1.00;;;8.60;94.20;;;10.24;63.98;103064.66;3081604;46;20433;-76
2024/01/31 01:26:53;;;;;;;3.80;0.80;;;8.50;94.20;;;10.24;63.94;103069.94;3080742;46;20428;-76
2024/01/31 01:29:22;;;;;;;2.00;0.90;;;8.60;94.20;;;10.24;63.93;103075.19;3081382;46;20431;-76
2024/01/31 01:31:50;;;;;;;2.47;0.77;;;8.50;94.20;;;10.24;64.04;103069.94;3081155;46;20433;-76
2024/01/31 01:34:19;;;;;;;2.53;0.77;;;8.50;94.30;;;10.24;64.01;103075.19;3081346;46;20439;-76
2024/01/31 01:36:48;;;;;;;1.47;0.80;;;8.50;94.40;;;10.22;63.92;103082.38;3081062;46;20554;-77
2024/01/31 01:39:16;;;;;;;1.80;0.73;;;8.50;94.40;;;10.18;64.26;103083.53;3080805;46;20452;-77
2024/01/31 01:41:51;;;;;;;3.00;0.73;;;8.50;94.40;;;10.11;64.25;103080.50;3081162;46;20502;-76
2024/01/31 01:44:19;;;;;;;1.10;0.60;;;8.50;94.50;;;10.08;64.33;103080.69;3082989;46;20428;-75
2024/01/31 01:46:48;;;;;;;1.70;0.87;;;8.40;94.40;;;10.06;64.40;103079.13;3083535;46;21025;-76
2024/01/31 01:49:17;;;;;;;1.93;0.90;;;8.40;94.50;;;10.07;64.62;103080.81;3083155;46;20984;-76
2024/01/31 01:51:46;;;;;;;1.80;0.90;;;8.40;94.50;;;10.05;64.41;103080.94;3083861;46;20516;-76
2024/01/31 01:54:14;;;;;;;4.20;1.40;;;8.40;94.50;;;10.05;64.72;103088.00;3083259;46;20426;-76
2024/01/31 01:56:47;;;;;;;1.80;0.80;;;8.40;94.50;;;10.04;64.31;103088.94;3082859;46;20455;-76
2024/01/31 01:59:16;;;;;;;3.23;1.17;;;8.40;94.50;;;10.03;64.51;103088.09;3082057;46;20473;-75
2024/01/31 02:01:46;;;;;;;4.57;0.90;;;8.30;94.40;;;10.02;64.34;103090.84;3082591;46;20431;-76
2024/01/31 02:04:18;;;;;;;2.60;0.90;;;8.30;94.40;;;10.02;64.52;103093.47;3083424;46;20428;-76
2024/01/31 02:06:47;;;;;;;2.43;1.00;;;8.30;94.80;;;10.03;64.41;103092.53;3083391;46;20531;-76
2024/01/31 02:09:15;;;;;;;3.30;1.10;;;8.30;94.40;;;10.03;64.40;103097.81;3082666;46;20561;-76
2024/01/31 02:11:44;;;;;;;2.90;0.80;;;8.30;94.40;;;10.04;64.45;103092.41;3083105;46;20423;-76
2024/01/31 02:14:12;;;;;;;3.63;0.87;;;8.30;94.60;;;10.06;64.47;103093.13;3082758;46;21103;-76
2024/01/31 02:16:44;;;;;;;4.50;0.80;;;8.30;94.60;;;10.07;64.49;103091.34;3083328;46;20431;-76
2024/01/31 02:19:13;;;;;;;1.07;0.87;;;8.30;94.50;;;10.07;64.31;103093.97;3082489;46;20447;-76
2024/01/31 02:21:46;;;;;;;2.17;1.07;;;8.30;94.40;;;10.05;64.15;103101.16;3083217;46;20439;-76
2024/01/31 02:24:14;;;;;;;3.93;1.17;;;8.30;94.30;;;10.05;64.14;103096.75;3082735;46;20451;-76
2024/01/31 02:26:42;;;;;;;2.47;0.70;;;8.30;94.30;;;10.06;64.11;103097.56;3083256;46;20431;-76
2024/01/31 02:29:11;;;;;;;4.00;0.93;;;8.30;94.10;;;10.05;64.12;103095.88;3082480;46;20458;-76
2024/01/31 02:31:40;;;;;;;1.90;0.67;;;8.30;94.40;;;10.04;63.86;103094.19;3083505;46;20430;-76
2024/01/31 02:34:08;;;;;;;3.13;1.00;;;8.30;94.00;;;10.04;64.08;103096.81;3083229;46;20520;-75
2024/01/31 02:36:36;;;;;;;2.73;1.00;;;8.30;94.00;;;10.05;64.00;103096.75;3083043;46;20427;-76
2024/01/31 02:39:05;;;;;;;4.07;1.17;;;8.30;94.00;;;10.05;63.76;103091.47;3082546;46;20443;-76
2024/01/31 02:41:33;;;;;;;4.97;1.13;;;8.30;94.00;;;10.06;63.88;103087.03;3083428;46;20427;-77
2024/01/31 02:44:02;;;;;;;2.80;1.07;;;8.30;93.90;;;10.04;63.72;103084.53;3082899;46;20592;-76
2024/01/31 02:46:30;;;;;;;2.90;1.10;;;8.30;93.90;;;10.04;63.58;103091.56;3082184;46;20433;-76
2024/01/31 02:49:00;;;;;;;2.93;1.10;;;8.30;94.00;;;10.02;63.51;103082.94;3082438;46;20467;-75
2024/01/31 02:51:29;;;;;;;6.53;1.37;;;8.30;94.20;;;9.99;63.95;103085.81;3082983;46;20442;-76
2024/01/31 02:53:57;;;;;;;2.93;1.10;;;8.30;94.30;;;9.97;63.75;103087.72;3082399;46;20427;-76
2024/01/31 02:56:26;;;;;;;3.67;1.30;;;8.20;94.40;;;9.97;64.01;103082.44;3083222;46;20579;-76
2024/01/31 02:58:54;;;;;;;7.57;1.67;;;8.30;94.50;;;9.98;64.34;103084.13;3082282;46;20483;-76
2024/01/31 03:01:23;;;;;;;6.87;1.87;;;8.20;94.60;;;9.98;64.28;103078.88;3083143;46;20427;-76
2024/01/31 03:03:51;;;;;;;3.47;1.30;;;8.20;94.60;;;9.97;64.16;103083.28;3082599;46;20507;-76
2024/01/31 03:06:20;;;;;;;2.87;1.40;;;8.20;94.60;;;9.97;64.19;103077.19;3082952;46;21042;-76
2024/01/31 03:08:48;;;;;;;4.23;1.70;;;8.20;94.60;;;9.97;64.44;103071.94;3082391;46;20435;-76
2024/01/31 03:11:16;;;;;;;6.50;1.60;;;8.20;94.60;;;9.97;64.36;103074.56;3082882;46;20460;-76
2024/01/31 03:13:45;;;;;;;6.83;2.50;;;8.20;94.50;;;9.98;64.33;103074.44;3082944;46;20432;-76
2024/01/31 03:16:13;;;;;;;5.90;2.27;;;8.20;94.40;;;9.97;64.14;103082.44;3082826;46;20452;-75
2024/01/31 03:18:42;;;;;;;7.10;3.50;;;8.20;94.40;;;9.98;64.13;103084.94;3082100;46;20525;-76
2024/01/31 03:21:10;;;;;;;6.17;3.43;;;8.20;94.30;;;9.98;64.24;103084.13;3082675;46;20427;-76
2024/01/31 03:23:38;;;;;;;6.27;2.57;;;8.20;94.20;;;9.99;64.13;103091.06;3082865;46;20452;-76
2024/01/31 03:26:07;;;;;;;4.47;2.13;;;8.20;94.20;;;9.99;64.09;103088.44;3082591;46;20460;-76
2024/01/31 03:28:35;;;;;;;4.53;2.17;;;8.20;94.20;;;10.01;63.93;103091.78;3082003;46;20439;-76
2024/01/31 03:31:04;;;;;;;4.00;1.77;;;8.20;94.10;;;10.00;63.91;103090.13;3082305;46;20483;-75
2024/01/31 03:33:32;;;;;;;5.67;1.47;;;8.20;94.10;;;9.99;63.77;103098.97;3082375;46;20457;-76
2024/01/31 03:36:01;;;;;;;4.13;1.00;;;8.20;93.90;;;9.97;63.81;103087.72;3082261;46;20996;-76
2024/01/31 03:38:29;;;;;;;4.37;1.40;;;8.20;94.00;;;9.96;63.88;103092.13;3082219;46;20440;-76
2024/01/31 03:40:57;;;;;;;4.77;1.00;;;8.20;94.00;;;9.96;63.84;103097.38;3082269;46;20432;-76
2024/01/31 03:43:26;;;;;;;3.37;1.57;;;8.20;94.00;;;9.96;63.64;103091.31;3082587;46;20999;-76
2024/01/31 03:45:54;;;;;;;2.97;1.50;;;8.20;94.00;;;9.98;64.02;103094.66;3081611;46;20436;-76
2024/01/31 03:48:22;;;;;;;5.33;1.70;;;8.20;94.10;;;10.00;63.89;103087.50;3082177;46;20439;-76
2024/01/31 03:50:51;;;;;;;4.77;2.00;;;8.20;94.20;;;10.00;63.66;103088.34;3082264;46;20514;-76
2024/01/31 03:53:19;;;;;;;2.83;1.30;;;8.20;94.10;;;10.01;63.91;103094.41;3082276;46;20427;-75
2024/01/31 03:55:48;;;;;;;5.90;1.50;;;8.20;94.20;;;10.01;63.83;103091.78;3081967;46;20432;-76
2024/01/31 03:58:17;;;;;;;3.53;1.60;;;8.20;94.20;;;10.01;63.86;103078.63;3081930;46;21072;-76
2024/01/31 04:00:46;;;;;;;3.20;1.10;;;8.20;94.20;;;10.02;63.73;103098.75;3082273;46;20428;-76
2024/01/31 04:03:14;;;;;;;3.23;1.53;;;8.20;94.20;;;10.02;63.67;103096.94;3082169;46;20504;-75
2024/01/31 04:05:43;;;;;;;3.97;1.60;;;8.20;94.20;;;10.02;63.86;103101.38;3081491;46;21009;-76
2024/01/31 04:08:11;;;;;;;2.03;1.30;;;8.30;94.20;;;10.00;63.64;103095.38;3081524;46;21007;-75
2024/01/31 04:10:40;;;;;;;7.40;1.47;;;8.30;94.10;;;10.00;63.79;103098.00;3082185;46;20453;-75
2024/01/31 04:13:08;;;;;;;4.23;1.30;;;8.30;94.20;;;10.01;63.72;103100.53;3081957;46;20427;-75
2024/01/31 04:15:37;;;;;;;5.00;1.30;;;8.30;94.20;;;10.03;63.96;103097.81;3081665;46;21165;-76
2024/01/31 04:18:07;;;;;;;6.23;1.53;;;8.30;94.20;;;10.04;63.60;103088.94;3081723;46;20467;-76
2024/01/31 04:20:38;;;;;;;5.37;1.47;;;8.30;94.10;;;10.02;63.67;103096.94;3082034;46;20438;-76
2024/01/31 04:23:07;;;;;;;3.67;1.50;;;8.20;94.00;;;10.03;63.61;103095.97;3081509;46;21047;-76
2024/01/31 04:25:35;;;;;;;3.30;1.30;;;8.30;93.90;;;10.02;63.73;103085.59;3081809;46;20452;-76
2024/01/31 04:28:04;;;;;;;2.83;0.90;;;8.20;93.80;;;10.01;63.42;103091.78;3081386;46;20468;-76
2024/01/31 04:30:33;;;;;;;4.67;1.53;;;8.20;93.70;;;10.01;63.33;103089.16;3081833;46;21039;-77
2024/01/31 04:33:02;;;;;;;3.20;1.30;;;8.20;94.10;;;10.01;63.32;103094.41;3081860;46;20438;-76
2024/01/31 04:35:30;;;;;;;3.77;1.10;;;8.20;94.00;;;10.02;63.10;103085.59;3081584;46;20532;-76
2024/01/31 04:37:59;;;;;;;3.07;1.10;;;8.20;93.50;;;10.03;63.10;103089.91;3081253;46;20438;-76
2024/01/31 04:40:27;;;;;;;8.90;1.67;;;8.20;93.30;;;10.02;62.69;103085.59;3082056;46;20432;-80
2024/01/31 04:42:55;;;;;;;4.73;1.13;;;8.20;93.10;;;10.02;62.85;103085.59;3081563;46;20460;-76
2024/01/31 04:45:24;;;;;;;7.67;1.70;;;8.20;93.10;;;10.02;62.55;103085.59;3081075;46;20436;-76
2024/01/31 04:47:52;;;;;;;3.87;1.10;;;8.20;93.00;;;10.01;62.52;103086.53;3081388;46;20443;-76
2024/01/31 04:50:21;;;;;;;3.07;1.50;;;8.20;92.90;;;10.01;62.55;103081.25;3081729;46;20427;-76
2024/01/31 04:52:49;;;;;;;2.53;1.20;;;8.20;92.90;;;10.01;62.17;103083.88;3081654;46;20462;-76
2024/01/31 04:55:17;;;;;;;7.30;1.70;;;8.20;93.00;;;10.02;62.25;103080.31;3081261;46;20472;-76
2024/01/31 04:57:46;;;;;;;4.30;1.53;;;8.20;93.00;;;10.03;62.08;103082.00;3081239;46;20443;-75
2024/01/31 05:00:16;;;;;;;3.03;1.40;;;8.30;93.10;;;10.03;62.30;103074.94;3081471;46;20453;-76
2024/01/31 05:02:44;;;;;;;4.97;1.57;;;8.20;93.10;;;10.05;62.05;103080.09;3081362;46;20427;-76
2024/01/31 05:05:12;;;;;;;4.17;1.87;;;8.30;93.10;;;10.03;62.12;103079.38;3081185;46;20427;-76
2024/01/31 05:07:41;;;;;;;8.20;1.63;;;8.20;92.90;;;10.01;61.98;103089.16;3081203;46;20446;-75
2024/01/31 05:10:10;;;;;;;6.60;1.43;;;8.30;93.20;;;9.97;61.93;103088.56;3081562;46;20432;-76
2024/01/31 05:12:39;;;;;;;3.77;1.33;;;8.20;92.80;;;9.95;61.96;103087.00;3081060;46;20432;-76
2024/01/31 05:15:07;;;;;;;5.50;1.60;;;8.20;92.70;;;9.94;61.98;103103.72;3081325;46;20439;-77
2024/01/31 05:17:36;;;;;;;5.53;2.07;;;8.20;92.70;;;9.94;61.92;103095.81;3080776;46;20468;-76
2024/01/31 05:20:06;;;;;;;5.67;1.47;;;8.20;92.70;;;9.93;61.77;103102.91;3081298;46;20431;-76
2024/01/31 05:22:35;;;;;;;6.67;1.53;;;8.20;92.60;;;9.92;61.63;103095.09;3081852;46;20531;-76
2024/01/31 05:25:07;;;;;;;3.83;1.43;;;8.20;92.50;;;9.93;61.38;103109.94;3081301;46;20481;-76
2024/01/31 05:27:36;;;;;;;8.53;2.93;;;8.20;92.10;;;9.94;61.07;103098.44;3081067;46;20935;-76
2024/01/31 05:30:06;;;;;;;6.33;1.53;;;8.20;91.80;;;9.96;60.60;103107.91;3081055;46;20449;-76
2024/01/31 05:32:35;;;;;;;4.63;1.23;;;8.20;91.70;;;9.97;60.60;103108.75;3081553;46;20431;-76
2024/01/31 05:35:04;;;;;;;7.67;1.30;;;8.20;91.50;;;9.96;60.32;103107.09;3080878;46;20448;-76
2024/01/31 05:37:32;;;;;;;6.17;1.57;;;8.20;91.50;;;9.95;60.32;103118.56;3080797;46;21107;-76
2024/01/31 05:40:04;;;;;;;11.23;1.73;;;8.20;91.50;;;9.93;60.52;103102.91;3080982;46;20459;-76
2024/01/31 05:42:32;;;;;;;4.37;1.50;;;8.20;91.40;;;9.93;59.94;103112.56;3081296;46;21101;-76
2024/01/31 05:45:01;;;;;;;5.37;1.30;;;8.20;91.50;;;9.90;60.01;103120.66;3080518;46;20427;-75
2024/01/31 05:47:29;;;;;;;4.33;1.63;;;8.10;91.40;;;9.87;59.53;103113.00;3080784;46;20444;-76
2024/01/31 05:49:58;;;;;;;7.83;1.63;;;8.20;91.40;;;9.87;60.02;103119.09;3080927;46;20524;-75
2024/01/31 05:52:26;;;;;;;7.30;1.63;;;8.10;91.40;;;9.88;60.01;103118.16;3080991;46;20431;-76
2024/01/31 05:54:55;;;;;;;5.40;1.30;;;8.20;91.50;;;9.84;58.95;103121.13;3081046;46;20449;-76
2024/01/31 05:57:23;;;;;;;8.40;1.60;;;8.10;91.00;;;9.85;59.73;103131.53;3080463;46;21221;-76
2024/01/31 05:59:51;;;;;;;4.60;1.23;;;8.20;91.20;;;9.87;59.39;103136.66;3080843;46;20428;-75
2024/01/31 06:02:21;;;;;;;5.67;1.60;;;8.10;91.10;;;9.88;59.39;103139.22;3080694;46;21208;-76
2024/01/31 06:04:50;;;;;;;4.40;1.40;;;8.20;91.00;;;9.89;59.33;103140.06;3080991;46;20456;-75
2024/01/31 06:07:19;;;;;;;5.77;2.30;;;8.20;90.90;;;9.91;59.10;103159.19;3080568;46;21156;-76
2024/01/31 06:09:47;;;;;;;5.00;2.40;;;8.10;90.90;;;9.93;59.24;103157.28;3081067;46;20515;-76
2024/01/31 06:12:16;;;;;;;3.60;1.47;;;8.10;90.90;;;9.93;59.10;103154.66;3080741;46;20431;-76
2024/01/31 06:14:44;;;;;;;10.47;3.63;;;8.20;90.70;;;9.94;58.81;103161.56;3080659;46;21100;-76
2024/01/31 06:17:14;;;;;;;7.13;2.13;;;8.20;90.50;;;9.94;58.70;103157.16;3079275;46;20467;-76
2024/01/31 06:19:43;;;;;;;3.83;1.50;;;8.20;90.50;;;9.95;58.53;103152.75;3080556;46;20460;-76
2024/01/31 06:22:12;;;;;;;5.30;1.40;;;8.20;90.20;;;9.95;58.05;103150.97;3080380;46;20980;-76
2024/01/31 06:24:40;;;;;;;7.27;1.70;;;8.10;90.00;;;9.95;58.24;103158.84;3080646;46;20522;-76
2024/01/31 06:27:09;;;;;;;4.23;1.43;;;8.20;90.00;;;9.96;58.08;103151.81;3080265;46;21003;-76
2024/01/31 06:29:40;;;;;;;4.97;1.57;;;8.20;89.80;;;9.95;57.60;103153.59;3082415;46;21054;-76
2024/01/31 06:32:09;;;;;;;6.03;1.37;;;8.20;89.60;;;9.96;57.57;103159.72;3083271;46;20426;-75
2024/01/31 06:34:38;;;;;;;4.70;1.70;;;8.20;89.60;;;9.97;57.45;103158.72;3082983;46;20438;-76
2024/01/31 06:37:07;;;;;;;8.73;2.30;;;8.20;89.50;;;9.97;57.47;103156.94;3082460;46;20435;-76
2024/01/31 06:39:35;;;;;;;7.03;2.07;;;8.20;89.40;;;9.99;57.49;103167.34;3084325;46;20592;-76
2024/01/31 06:42:06;;;;;;;4.67;1.67;;;8.20;89.50;;;10.00;57.34;103162.00;3083091;46;20455;-76
2024/01/31 06:44:35;;;;;;;9.30;2.73;;;8.20;89.50;;;10.01;57.35;103168.06;3082603;46;20430;-76
2024/01/31 06:47:05;;;;;;;8.33;2.10;;;8.20;89.60;;;10.04;57.47;103160.81;3082675;46;20444;-76
2024/01/31 06:49:33;;;;;;;16.17;4.57;;;8.20;89.80;;;10.06;57.06;103166.81;3082802;46;20432;-76
2024/01/31 06:52:02;;;;;;;4.67;1.53;;;8.30;89.50;;;10.08;56.97;103161.41;3083266;46;20444;-76
2024/01/31 06:54:31;;;;;;;9.73;3.60;;;8.30;89.00;;;10.04;56.35;103170.50;3081930;46;20558;-76
2024/01/31 06:56:59;;;;;;;8.73;2.47;;;8.30;88.40;;;10.03;56.32;103156.50;3082519;46;20431;-78
2024/01/31 06:59:27;;;;;;;7.77;2.13;;;8.30;88.20;;;10.02;56.24;103159.25;3082609;46;21008;-76
2024/01/31 07:01:56;;;;;;;8.43;2.17;;;8.30;87.50;;;10.00;55.99;103163.78;3082696;46;20952;-76
2024/01/31 07:04:24;;;;;;;4.30;1.63;;;8.30;87.70;;;10.01;56.48;103168.91;3082503;46;20462;-76
2024/01/31 07:06:53;;;;;;;8.27;1.93;;;8.20;87.80;;;10.01;56.23;103173.34;3082578;46;20462;-75
2024/01/31 07:09:22;;;;;;;5.83;1.80;;;8.30;87.70;;;10.01;55.99;103178.59;3083413;46;20447;-76
2024/01/31 07:11:50;;;;;;;5.63;1.97;;;8.30;87.60;;;9.99;55.97;103186.63;3082580;46;20934;-76
2024/01/31 07:14:19;;;;;;;7.43;1.10;;;8.20;87.10;;;9.95;55.99;103179.06;3082649;46;20428;-76
2024/01/31 07:16:48;;;;;;;5.30;1.30;;;8.20;87.10;;;9.93;55.98;103188.84;3082741;46;20432;-76
2024/01/31 07:19:17;;;;;;;3.37;1.60;;;8.20;87.40;;;9.94;56.01;103182.63;3081438;46;20448;-76
2024/01/31 07:21:45;;;;;;;5.27;1.23;;;8.20;87.20;;;9.94;55.90;103191.34;3082925;46;20438;-76
2024/01/31 07:24:13;;;;;;;5.23;1.40;;;8.20;87.10;;;9.94;55.68;103187.88;3082740;46;20979;-75
2024/01/31 07:26:55;;;;;;;9.50;2.90;;;8.20;87.00;;;9.95;55.74;103189.56;3082336;46;20431;-76
2024/01/31 07:29:24;;;;;;;6.23;1.97;;;8.20;87.50;;;9.96;55.70;103196.53;3082533;46;20427;-76
2024/01/31 07:31:53;;;;;;;6.83;1.60;;;8.20;87.10;;;9.97;55.73;103198.19;3082738;46;20440;-76
2024/01/31 07:34:22;;;;;;;2.20;1.07;;;8.20;86.50;;;9.95;55.60;103205.38;3082476;46;20427;-76
2024/01/31 07:36:51;;;;;;;5.27;1.67;;;8.20;86.20;;;9.93;55.46;103202.84;3082397;46;20448;-74
2024/01/31 07:39:19;;;;;;;5.43;1.77;;;8.20;86.00;;;9.94;55.33;103203.66;3082083;46;20452;-75
2024/01/31 07:41:48;;;;;;;2.57;1.23;;;8.20;87.00;;;9.94;55.19;103208.94;3081783;46;20527;-76
2024/01/31 07:44:16;;;;;;;5.40;1.93;;;8.20;86.10;;;9.93;54.89;103212.53;3082417;46;20424;-75
2024/01/31 07:46:44;;;;;;;5.47;1.83;;;8.20;85.90;;;9.93;55.39;103212.53;3082335;46;20452;-76
2024/01/31 07:49:13;;;;;;;24.67;4.07;;;8.20;85.80;;;9.93;54.71;103212.53;3081682;46;20519;-75
2024/01/31 07:51:45;;;;;;;4.27;1.47;;;8.20;86.00;;;9.93;54.97;103217.78;3082253;46;20485;-76
2024/01/31 07:54:16;;;;;;;5.87;1.43;;;8.10;85.60;;;9.93;54.66;103215.16;3082134;46;20431;-75
2024/01/31 07:56:44;;;;;;;9.13;1.73;;;8.10;85.40;;;9.93;54.57;103216.00;3081504;46;20452;-76
2024/01/31 07:59:12;;;;;;;3.33;1.00;;;8.10;85.30;;;9.92;54.70;103221.34;3081471;46;20455;-76
2024/01/31 08:01:41;;;;;;;5.03;1.30;;;8.10;85.10;;;9.91;54.40;103219.69;3082097;46;21090;-76
2024/01/31 08:04:09;;;;;;;4.50;1.37;;;8.10;85.30;;;9.92;54.65;103222.19;3081486;46;21098;-75
2024/01/31 08:06:42;;;;;;;5.60;2.00;;;8.10;85.40;;;9.94;54.77;103229.97;3081803;46;21026;-76
2024/01/31 08:09:11;;;;;;;4.03;1.70;;;8.10;85.60;;;9.97;54.65;103221.88;3081189;46;20460;-76
2024/01/31 08:11:49;;;;;;;21.27;4.20;;;8.20;85.80;;;9.98;54.40;103220.94;3081967;46;21152;-75
2024/01/31 08:14:17;;;;;;;80.07;17.17;;;8.10;85.20;;;9.99;54.23;103217.34;3082102;46;21071;-76
2024/01/31 08:16:49;;;;;;;13.90;2.40;;;8.20;85.40;;;10.00;54.14;103234.81;3082104;46;20428;-76
2024/01/31 08:19:17;;;;;;;6.87;1.67;;;8.20;85.60;;;10.02;54.34;103246.06;3081869;46;21140;-76
2024/01/31 08:21:46;;;;;;;4.87;1.60;;;8.20;85.50;;;10.01;53.96;103247.00;3081854;46;20428;-75
2024/01/31 08:24:15;;;;;;;4.03;1.50;;;8.20;85.20;;;9.99;53.98;103251.53;3081772;46;20481;-76
2024/01/31 08:26:44;;;;;;;10.53;1.93;;;8.20;85.10;;;9.94;54.11;103251.88;3080362;43;20427;-75
2024/01/31 08:29:12;;;;;;;5.60;1.53;;;8.20;85.10;;;9.96;54.29;103252.59;3080829;46;20443;-77
2024/01/31 08:31:52;;;;;;;4.93;1.50;;;8.20;85.60;;;10.00;54.39;103261.13;3081482;46;20517;-76
2024/01/31 08:34:22;;;;;;;5.57;1.67;;;8.20;85.30;;;9.99;54.04;103280.47;3081170;46;21168;-75
2024/01/31 08:36:55;;;;;;;3.63;1.30;;;8.20;85.20;;;9.99;54.27;103283.94;3080841;43;21093;-75
2024/01/31 08:39:24;;;;;;;8.17;1.70;;;8.20;85.20;;;9.98;53.94;103273.56;3080133;46;20423;-75
2024/01/31 08:41:52;;;;;;;8.13;1.57;;;8.20;85.60;;;9.97;54.02;103261.34;3080814;46;21087;-75
2024/01/31 08:44:21;;;;;;;6.13;1.70;;;8.20;85.20;;;9.97;54.23;103261.34;3080508;46;20463;-76
2024/01/31 08:46:52;;;;;;;4.63;1.50;;;8.20;86.00;;;9.97;54.11;103256.91;3080740;46;21138;-76
2024/01/31 08:49:40;;;;;;;9.73;2.60;;;8.10;85.10;;;9.96;54.06;103260.47;3080292;43;20447;-75
2024/01/31 08:52:09;;;;;;;6.60;1.70;;;8.20;85.00;;;9.96;54.14;103259.66;3079152;46;20431;-75
2024/01/31 08:54:41;;;;;;;4.50;1.10;;;8.20;85.20;;;9.97;54.20;103266.59;3080424;46;21092;-76
2024/01/31 08:57:09;;;;;;;3.90;1.63;;;8.20;85.10;;;9.98;54.27;103263.84;3080959;46;20445;-76
2024/01/31 08:59:38;;;;;;;3.27;1.43;;;8.20;85.30;;;10.00;54.01;103271.66;3080467;46;20474;-75
2024/01/31 09:02:07;;;;;;;7.10;2.27;;;8.20;85.20;;;10.00;54.25;103264.59;3080957;46;20505;-76
2024/01/31 09:04:36;;;;;;;3.80;1.50;;;8.20;85.40;;;10.02;54.35;103261.84;3079837;46;20451;-76
2024/01/31 09:07:04;;;;;;;5.23;1.67;;;8.20;85.30;;;10.03;54.13;103253.03;3079618;46;20424;-76
2024/01/31 09:09:37;;;;;;;11.77;3.60;;;8.20;85.30;;;10.04;54.04;103252.91;3081258;46;20521;-76
2024/01/31 09:12:08;;;;;;;4.27;1.10;;;8.20;85.30;;;10.08;54.11;103253.50;3081047;46;21005;-77
2024/01/31 09:14:36;;;;;;;8.63;2.20;;;8.30;85.30;;;10.09;53.70;103249.94;3080386;46;20428;-76
2024/01/31 09:17:05;;;;;;;3.90;1.33;;;8.20;84.90;;;10.10;53.76;103251.63;3080570;43;20455;-74
2024/01/31 09:19:33;;;;;;;6.23;1.70;;;8.20;84.50;;;10.11;53.61;103248.03;3080191;46;20454;-75
2024/01/31 09:22:02;;;;;;;3.90;1.70;;;8.30;84.40;;;10.11;53.84;103246.28;3080506;46;21081;-76
2024/01/31 09:24:30;;;;;;;5.00;2.03;;;8.30;84.50;;;10.17;53.71;103247.66;3081024;46;20458;-76
2024/01/31 09:26:59;;;;;;;4.97;2.00;;;8.30;84.60;;;10.23;53.73;103251.59;3080057;46;20561;-75
2024/01/31 09:29:27;;;;;;;2.87;1.47;;;8.30;84.50;;;10.23;53.43;103247.19;3081750;46;20428;-76
2024/01/31 09:31:56;;;;;;;15.63;5.93;;;8.30;84.30;;;10.23;53.23;103236.66;3080373;46;20434;-76
2024/01/31 09:34:24;;;;;;;5.63;1.80;;;8.30;83.80;;;10.23;52.91;103226.13;3080922;46;20574;-76
2024/01/31 09:36:53;;;;;;;7.47;1.27;;;8.40;83.80;;;10.27;53.14;103219.69;3079640;46;20521;-75
2024/01/31 09:39:21;;;;;;;2.77;1.50;;;8.40;84.00;;;10.35;53.26;103206.81;3080419;46;20427;-76
2024/01/31 09:41:50;;;;;;;2.40;1.10;;;8.40;84.00;;;10.39;52.87;103205.63;3080899;46;20431;-76
2024/01/31 09:44:19;;;;;;;3.30;1.17;;;8.40;83.20;;;10.37;52.19;103196.19;3080405;46;20534;-75
2024/01/31 09:46:52;;;;;;;6.23;1.43;;;8.50;83.00;;;10.29;51.42;103194.13;3081853;43;20456;-76
2024/01/31 09:49:21;;;;;;;8.50;2.87;;;8.50;82.00;;;10.16;51.83;103194.16;3080461;46;20542;-75
2024/01/31 09:51:55;;;;;;;4.23;1.47;;;8.50;81.60;;;10.17;52.14;103195.84;3080197;46;21021;-76
2024/01/31 09:54:25;;;;;;;4.50;1.33;;;8.50;81.80;;;10.21;52.22;103185.94;3080245;46;20547;-76
2024/01/31 09:56:55;;;;;;;9.07;2.07;;;8.40;82.00;;;10.26;52.37;103178.56;3080021;46;21008;-76
2024/01/31 09:59:26;;;;;;;2.57;1.97;;;8.50;82.40;;;10.28;52.02;103187.16;3081220;46;21025;-75
2024/01/31 10:01:57;;;;;;;1.83;1.37;;;8.50;81.90;;;10.30;51.75;103200.22;3079577;46;21082;-75
2024/01/31 10:04:25;;;;;;;2.27;1.50;;;8.50;81.90;;;10.31;51.97;103197.47;3082226;46;20553;-76
2024/01/31 10:06:54;;;;;;;4.23;1.60;;;8.50;82.10;;;10.36;52.37;103190.09;3082959;46;20563;-75
2024/01/31 10:09:22;;;;;;;4.03;1.43;;;8.50;82.50;;;10.44;52.19;103195.63;3082575;46;20435;-76
2024/01/31 10:11:52;;;;;;;5.10;1.67;;;8.50;82.30;;;10.49;51.84;103185.59;3082921;46;21134;-75
2024/01/31 10:14:20;;;;;;;8.13;5.43;;;8.50;82.40;;;10.54;52.26;103183.47;3082976;46;20524;-76
2024/01/31 10:16:49;;;;;;;8.47;5.00;;;8.60;82.50;;;10.60;52.14;103193.53;3082571;46;21070;-75
2024/01/31 10:19:18;;;;;;;2.77;2.43;;;8.70;82.80;;;10.65;52.05;103180.84;3082998;46;20435;-76
2024/01/31 10:21:47;;;;;;;6.35;1.60;;;8.70;82.40;;;10.76;51.40;103188.81;3081157;46;22333;-75
2024/01/31 10:24:16;;;;;;;3.50;1.40;;;8.70;82.20;;;11.03;50.80;103180.59;3081171;46;22768;-76
2024/01/31 10:26:44;;;;;;;5.40;1.88;;;8.70;82.20;;;10.94;50.85;103183.09;3081375;46;22312;-74
2024/01/31 10:29:13;;;;;;;3.40;1.33;;;8.70;81.80;;;10.84;51.07;103186.41;3081152;46;20623;-75